Terminal Aerodrome Forecast
Issued by NWS

Home | Current Version | Previous Version | Text Only | Print | Product List | Glossary On
Versions: 1 2 3 4 5 6 7 8 9 10 11 12 13 14
817
FTUS43 KIND 281122
TAFBMG
TAF
KBMG 281122Z 2812/2912 12005KT P6SM BKN150
     FM281500 13009KT P6SM BKN200
     FM281900 13009KT P6SM VCSH BKN200
     FM282200 14008KT P6SM -SHRA VCTS OVC070CB
     FM290000 15007KT 5SM SHRA VCTS OVC020CB
     FM290300 18007KT 5SM SHRA VCTS OVC025CB
      AMD LTD TO CLD VIS AND WIND TIL 281300=

USA.gov is the U.S. government's official web portal to all federal, state and local government web resources and services.